createdAt,value
2018-03-26T00:00:36.221Z,17.75
2018-03-26T00:03:05.245Z,17.55
2018-03-26T00:05:33.635Z,17.40
2018-03-26T00:08:01.899Z,16.55
2018-03-26T00:10:30.178Z,15.80
2018-03-26T00:12:58.455Z,16.87
2018-03-26T00:15:26.730Z,16.98
2018-03-26T00:17:54.996Z,17.95
2018-03-26T00:20:23.286Z,17.00
2018-03-26T00:22:51.566Z,15.57
2018-03-26T00:25:20.821Z,15.40
2018-03-26T00:27:49.339Z,16.37
2018-03-26T00:30:17.613Z,16.77
2018-03-26T00:32:45.978Z,16.85
2018-03-26T00:35:14.254Z,16.25
2018-03-26T00:37:42.626Z,16.50
2018-03-26T00:40:11.800Z,18.35
2018-03-26T00:42:40.080Z,15.63
2018-03-26T00:45:08.560Z,16.30
2018-03-26T00:47:38.625Z,14.80
2018-03-26T00:50:06.894Z,15.60
2018-03-26T00:52:35.182Z,15.02
2018-03-26T00:55:03.454Z,16.60
2018-03-26T00:57:31.727Z,16.37
2018-03-26T01:00:00.005Z,17.50
2018-03-26T01:02:28.272Z,16.45
2018-03-26T01:04:56.538Z,18.05
2018-03-26T01:07:25.905Z,17.25
2018-03-26T01:09:54.689Z,17.77
2018-03-26T01:12:22.986Z,16.42
2018-03-26T01:14:51.399Z,17.92
2018-03-26T01:17:19.873Z,16.50
2018-03-26T01:19:48.229Z,17.30
2018-03-26T01:22:18.052Z,17.55
2018-03-26T01:24:46.353Z,17.92
2018-03-26T01:27:14.612Z,18.27
2018-03-26T01:29:42.957Z,18.12
2018-03-26T01:32:11.229Z,18.77
2018-03-26T01:34:39.645Z,16.58
2018-03-26T01:37:08.219Z,17.40
2018-03-26T01:39:36.495Z,18.20
2018-03-26T01:42:05.790Z,18.92
2018-03-26T01:44:34.087Z,18.75
2018-03-26T01:47:02.386Z,19.27
2018-03-26T01:49:30.649Z,17.55
2018-03-26T01:51:59.706Z,18.12
2018-03-26T01:54:28.042Z,17.98
2018-03-26T01:56:57.121Z,17.92
2018-03-26T01:59:25.460Z,17.50
2018-03-26T02:01:53.838Z,20.20
2018-03-26T02:04:22.109Z,22.05
2018-03-26T02:06:50.435Z,19.33
2018-03-26T02:09:19.630Z,21.48
2018-03-26T02:11:48.744Z,21.60
2018-03-26T02:14:17.081Z,21.25
2018-03-26T02:16:45.354Z,22.70
2018-03-26T02:19:13.781Z,21.70
2018-03-26T02:21:42.162Z,22.58
2018-03-26T02:24:10.685Z,21.17
2018-03-26T02:26:40.025Z,23.55
2018-03-26T02:29:09.054Z,21.52
2018-03-26T02:31:37.319Z,20.67
2018-03-26T02:34:05.596Z,21.50
2018-03-26T02:36:33.858Z,22.70
2018-03-26T02:39:02.278Z,22.87
2018-03-26T02:41:30.516Z,23.23
2018-03-26T02:43:58.799Z,23.77
2018-03-26T02:46:27.074Z,23.05
2018-03-26T02:48:55.349Z,23.00
2018-03-26T02:51:24.469Z,21.95
2018-03-26T02:53:52.726Z,22.33
2018-03-26T02:56:21.008Z,20.30
2018-03-26T02:58:49.537Z,21.52
2018-03-26T03:01:18.623Z,20.80
2018-03-26T03:03:47.664Z,22.02
2018-03-26T03:06:16.061Z,23.40
2018-03-26T03:08:44.323Z,22.00
2018-03-26T03:11:12.607Z,24.37
2018-03-26T03:13:40.863Z,24.27
2018-03-26T03:16:09.250Z,26.00
2018-03-26T03:18:37.519Z,24.05
2018-03-26T03:21:05.795Z,24.83
2018-03-26T03:23:34.811Z,24.90
2018-03-26T03:26:03.065Z,23.80
2018-03-26T03:28:31.337Z,22.60
2018-03-26T03:30:59.788Z,23.25
2018-03-26T03:33:28.093Z,24.05
2018-03-26T03:35:56.366Z,25.27
2018-03-26T03:38:24.663Z,24.55
2018-03-26T03:40:52.932Z,23.75
2018-03-26T03:43:22.206Z,25.30
2018-03-26T03:45:50.559Z,21.95
2018-03-26T03:48:18.919Z,24.67
2018-03-26T03:50:48.145Z,22.42
2018-03-26T03:53:17.347Z,23.20
2018-03-26T03:55:45.632Z,20.55
2018-03-26T03:58:13.961Z,24.80
2018-03-26T04:00:42.274Z,22.17
2018-03-26T04:03:11.536Z,24.65
2018-03-26T04:05:40.683Z,21.02
2018-03-26T04:08:08.974Z,21.17
2018-03-26T04:10:37.259Z,20.85
2018-03-26T04:13:05.540Z,23.62
2018-03-26T04:15:33.829Z,22.90
2018-03-26T04:18:02.883Z,22.45
2018-03-26T04:20:31.151Z,22.37
2018-03-26T04:22:59.525Z,21.70
2018-03-26T04:25:27.851Z,20.67
2018-03-26T04:27:56.380Z,19.58
2018-03-26T04:30:24.662Z,22.23
2018-03-26T04:32:52.952Z,21.83
2018-03-26T04:35:21.210Z,22.33
2018-03-26T04:37:49.479Z,21.62
2018-03-26T04:40:18.861Z,20.95
2018-03-26T04:42:47.323Z,20.67
2018-03-26T04:45:15.595Z,21.40
2018-03-26T04:47:44.625Z,21.42
2018-03-26T04:50:12.905Z,21.77
2018-03-26T04:52:42.726Z,20.23
2018-03-26T04:55:11.202Z,18.92
2018-03-26T04:57:39.488Z,21.73
2018-03-26T05:00:07.770Z,21.15
2018-03-26T05:02:36.149Z,19.52
2018-03-26T05:05:04.415Z,21.48
2018-03-26T05:07:32.833Z,20.50
2018-03-26T05:10:01.155Z,24.70
2018-03-26T05:12:29.424Z,21.12
2018-03-26T05:14:58.612Z,22.15
2018-03-26T05:17:26.928Z,20.52
2018-03-26T05:19:55.181Z,19.37
2018-03-26T05:22:23.456Z,21.35
2018-03-26T05:24:51.751Z,21.08
2018-03-26T05:27:22.095Z,21.12
2018-03-26T05:29:51.248Z,23.10
2018-03-26T05:32:19.520Z,21.30
2018-03-26T05:34:47.820Z,23.58
2018-03-26T05:37:16.084Z,21.40
2018-03-26T05:39:45.398Z,22.17
2018-03-26T05:42:13.735Z,21.85
2018-03-26T05:44:42.057Z,22.80
2018-03-26T05:47:10.753Z,21.45
2018-03-26T05:49:40.055Z,21.62
2018-03-26T05:52:08.486Z,20.90
2018-03-26T05:54:36.970Z,24.10
2018-03-26T05:57:05.234Z,22.62
2018-03-26T05:59:33.506Z,21.42
2018-03-26T06:02:02.573Z,20.73
2018-03-26T06:04:31.624Z,25.62
2018-03-26T06:07:00.092Z,24.27
2018-03-26T06:09:28.361Z,23.58
2018-03-26T06:11:56.702Z,23.23
2018-03-26T06:14:25.948Z,24.58
2018-03-26T06:17:15.507Z,25.65
2018-03-26T06:19:43.815Z,24.73
2018-03-26T06:22:12.066Z,23.95
2018-03-26T06:24:40.937Z,24.90
2018-03-26T06:27:09.181Z,23.75
2018-03-26T06:29:37.495Z,24.60
2018-03-26T06:32:06.584Z,24.77
2018-03-26T06:34:34.857Z,26.90
2018-03-26T06:40:03.584Z,25.58
2018-03-26T06:42:32.443Z,24.20
2018-03-26T06:45:02.344Z,25.98
2018-03-26T06:47:30.781Z,26.55
2018-03-26T06:49:59.015Z,27.80
2018-03-26T06:52:27.472Z,25.15
2018-03-26T06:54:55.834Z,26.33
2018-03-26T06:57:24.211Z,26.60
2018-03-26T06:59:54.062Z,24.75
2018-03-26T07:02:22.396Z,26.85
2018-03-26T07:04:50.718Z,26.17
2018-03-26T07:07:18.995Z,26.55
2018-03-26T07:09:47.262Z,26.42
2018-03-26T07:12:15.851Z,28.33
2018-03-26T07:14:44.130Z,27.73
2018-03-26T07:17:12.403Z,29.30
2018-03-26T07:19:40.693Z,26.95
2018-03-26T07:22:09.004Z,26.58
2018-03-26T07:24:38.054Z,27.62
2018-03-26T07:27:06.308Z,27.60
2018-03-26T07:29:34.801Z,27.45
2018-03-26T07:32:03.086Z,29.42
2018-03-26T07:34:31.354Z,28.15
2018-03-26T07:36:59.627Z,29.20
2018-03-26T07:39:28.965Z,30.17
2018-03-26T07:41:57.206Z,29.55
2018-03-26T07:44:27.193Z,27.05
2018-03-26T07:46:55.485Z,27.52
2018-03-26T07:49:23.768Z,29.00
2018-03-26T07:51:52.287Z,28.50
2018-03-26T07:54:20.521Z,29.83
2018-03-26T07:56:49.924Z,28.25
2018-03-26T07:59:18.743Z,27.70
2018-03-26T08:01:47.075Z,27.67
2018-03-26T08:04:15.357Z,29.60
2018-03-26T08:06:43.838Z,26.92
2018-03-26T08:09:12.083Z,31.42
2018-03-26T08:11:40.588Z,29.67
2018-03-26T08:14:08.933Z,28.73
2018-03-26T08:16:40.996Z,31.05
2018-03-26T08:19:10.151Z,26.48
2018-03-26T08:21:39.441Z,29.02
2018-03-26T08:24:07.710Z,29.10
2018-03-26T08:26:35.980Z,30.10
2018-03-26T08:29:04.357Z,32.60
2018-03-26T08:31:32.632Z,31.27
2018-03-26T08:34:01.256Z,31.77
2018-03-26T08:36:29.541Z,33.00
2018-03-26T08:38:58.640Z,30.62
2018-03-26T08:41:27.671Z,31.50
2018-03-26T08:43:56.640Z,33.35
2018-03-26T08:46:25.737Z,32.38
2018-03-26T08:48:53.998Z,32.33
2018-03-26T08:51:23.334Z,32.90
2018-03-26T08:53:51.604Z,33.13
2018-03-26T08:56:19.902Z,31.27
2018-03-26T08:58:48.147Z,30.70
2018-03-26T09:01:16.435Z,32.10
2018-03-26T09:03:44.732Z,31.73
2018-03-26T09:06:13.919Z,33.10
2018-03-26T09:08:42.189Z,30.23
2018-03-26T09:11:10.475Z,33.30
2018-03-26T09:16:13.209Z,32.70
2018-03-26T09:18:42.452Z,32.63
2018-03-26T09:21:10.722Z,31.90
2018-03-26T09:23:39.014Z,32.17
2018-03-26T09:26:07.333Z,33.33
2018-03-26T09:28:35.682Z,31.62
2018-03-26T09:31:03.944Z,33.45
2018-03-26T09:33:32.202Z,33.53
2018-03-26T09:36:00.545Z,31.27
2018-03-26T09:38:29.581Z,33.22
2018-03-26T09:40:57.983Z,31.80
2018-03-26T09:43:26.352Z,31.50
2018-03-26T09:45:54.624Z,34.50
2018-03-26T09:48:22.888Z,34.55
2018-03-26T09:50:51.174Z,33.28
2018-03-26T09:53:19.450Z,33.90
2018-03-26T09:55:47.747Z,35.70
2018-03-26T09:58:16.003Z,36.25
2018-03-26T10:00:49.110Z,32.78
2018-03-26T10:03:18.188Z,34.53
2018-03-26T10:05:46.664Z,35.13
2018-03-26T10:08:14.948Z,34.38
2018-03-26T10:10:43.212Z,33.00
2018-03-26T10:13:11.477Z,33.55
2018-03-26T10:15:39.775Z,34.00
2018-03-26T10:18:08.020Z,32.45
2018-03-26T10:20:36.467Z,34.00
2018-03-26T10:23:04.969Z,33.95
2018-03-26T10:25:33.256Z,32.55
2018-03-26T10:28:01.631Z,35.03
2018-03-26T10:30:29.901Z,33.03
2018-03-26T10:32:58.175Z,32.15
2018-03-26T10:35:26.570Z,31.70
2018-03-26T10:37:54.878Z,32.08
2018-03-26T10:40:24.241Z,32.47
2018-03-26T10:42:52.574Z,32.00
2018-03-26T10:45:21.649Z,30.83
2018-03-26T10:47:49.877Z,31.10
2018-03-26T10:50:18.294Z,31.00
2018-03-26T10:52:47.330Z,31.98
2018-03-26T10:55:15.610Z,30.65
2018-03-26T10:57:43.934Z,32.10
2018-03-26T11:00:12.395Z,31.60
2018-03-26T11:02:40.819Z,33.67
2018-03-26T11:05:09.194Z,30.70
2018-03-26T11:07:37.504Z,30.88
2018-03-26T11:10:05.794Z,29.42
2018-03-26T11:12:34.176Z,31.50
2018-03-26T11:15:02.438Z,31.25
2018-03-26T11:17:30.775Z,30.98
2018-03-26T11:19:59.082Z,29.75
2018-03-26T11:22:27.350Z,28.05
2018-03-26T11:24:55.675Z,29.30
2018-03-26T11:27:24.032Z,28.77
2018-03-26T11:29:52.442Z,31.80
2018-03-26T11:32:20.707Z,30.20
2018-03-26T11:34:50.413Z,30.20
2018-03-26T11:37:18.697Z,27.02
2018-03-26T11:39:47.758Z,28.40
2018-03-26T11:42:16.022Z,30.35
2018-03-26T11:44:44.359Z,30.10
2018-03-26T11:47:13.394Z,30.48
2018-03-26T11:49:41.702Z,31.33
2018-03-26T11:52:10.090Z,29.10
2018-03-26T11:54:38.442Z,29.15
2018-03-26T11:57:06.728Z,28.48
2018-03-26T11:59:34.998Z,28.12
2018-03-26T12:02:03.593Z,28.73
2018-03-26T12:04:31.964Z,27.27
2018-03-26T12:07:00.435Z,26.77
2018-03-26T12:09:28.714Z,27.70
2018-03-26T12:11:58.477Z,27.35
2018-03-26T12:14:26.778Z,28.85
2018-03-26T12:16:55.048Z,28.15
2018-03-26T12:19:23.368Z,29.85
2018-03-26T12:21:51.622Z,29.10
2018-03-26T12:24:37.539Z,29.52
2018-03-26T12:27:06.553Z,27.35
2018-03-26T12:29:52.613Z,28.38
2018-03-26T12:32:21.636Z,29.15
2018-03-26T12:35:07.864Z,28.23
2018-03-26T12:37:36.116Z,27.33
2018-03-26T12:40:04.601Z,27.83
2018-03-26T12:42:32.889Z,28.50
2018-03-26T12:45:18.871Z,28.95
2018-03-26T12:47:47.193Z,27.02
2018-03-26T12:50:15.472Z,27.50
2018-03-26T12:53:00.388Z,27.60
2018-03-26T12:55:28.653Z,27.00
2018-03-26T12:58:14.837Z,27.87
2018-03-26T13:00:43.137Z,25.58
2018-03-26T13:03:11.520Z,27.42
2018-03-26T13:05:39.923Z,28.27
2018-03-26T13:08:08.255Z,28.75
2018-03-26T13:10:36.542Z,27.35
2018-03-26T13:13:05.044Z,28.35
2018-03-26T13:15:33.393Z,29.20
2018-03-26T13:18:01.678Z,27.60
2018-03-26T13:20:30.288Z,26.70
2018-03-26T13:22:59.446Z,25.23
2018-03-26T13:25:27.926Z,26.52
2018-03-26T13:27:56.252Z,29.58
2018-03-26T13:30:25.383Z,28.23
2018-03-26T13:32:53.679Z,27.55
2018-03-26T13:35:21.963Z,31.27
2018-03-26T13:37:50.452Z,26.85
2018-03-26T13:40:18.858Z,25.60
2018-03-26T13:42:47.930Z,26.92
2018-03-26T13:45:16.204Z,25.55
2018-03-26T13:47:44.492Z,28.60
2018-03-26T13:50:12.954Z,28.90
2018-03-26T13:52:41.495Z,27.55
2018-03-26T13:55:09.991Z,25.92
2018-03-26T13:57:38.313Z,30.08
2018-03-26T14:00:08.126Z,28.95
2018-03-26T14:02:36.478Z,28.15
2018-03-26T14:05:04.786Z,25.88
2018-03-26T14:07:33.125Z,27.33
2018-03-26T14:10:19.000Z,26.75
2018-03-26T14:16:16.370Z,27.23
2018-03-26T14:18:44.704Z,27.23
2018-03-26T14:21:13.750Z,26.60
2018-03-26T14:23:42.035Z,27.00
2018-03-26T14:26:10.361Z,30.12
2018-03-26T14:28:39.465Z,28.55
2018-03-26T14:31:07.776Z,28.83
2018-03-26T14:33:36.054Z,26.98
2018-03-26T14:36:04.353Z,25.23
2018-03-26T14:38:32.653Z,25.92
2018-03-26T14:41:01.715Z,27.13
2018-03-26T14:43:30.039Z,27.25
2018-03-26T14:45:58.335Z,28.00
2018-03-26T14:48:26.618Z,24.83
2018-03-26T14:50:54.987Z,24.63
2018-03-26T14:53:23.261Z,25.10
2018-03-26T14:55:51.644Z,23.40
2018-03-26T14:58:19.916Z,22.60
2018-03-26T15:00:48.236Z,19.10
2018-03-26T15:03:16.553Z,16.10
2018-03-26T15:05:44.849Z,14.63
2018-03-26T15:08:13.181Z,14.98
2018-03-26T15:10:42.270Z,17.50
2018-03-26T15:13:10.675Z,18.55
2018-03-26T15:15:38.947Z,19.20
2018-03-26T15:18:07.308Z,18.98
2018-03-26T15:20:36.399Z,20.98
2018-03-26T15:23:07.196Z,19.42
2018-03-26T15:25:36.616Z,19.23
2018-03-26T15:28:04.927Z,20.15
2018-03-26T15:30:33.367Z,20.40
2018-03-26T15:33:01.664Z,21.33
2018-03-26T15:35:30.746Z,19.83
2018-03-26T15:37:59.074Z,21.52
2018-03-26T15:40:27.421Z,21.80
2018-03-26T15:42:55.719Z,21.70
2018-03-26T15:45:23.994Z,23.25
2018-03-26T15:47:52.296Z,24.27
2018-03-26T15:50:20.594Z,20.67
2018-03-26T15:52:48.926Z,22.60
2018-03-26T15:55:17.238Z,23.90
2018-03-26T15:57:45.548Z,21.62
2018-03-26T16:00:14.778Z,22.80
2018-03-26T16:02:48.490Z,24.35
2018-03-26T16:05:16.949Z,22.73
2018-03-26T16:07:45.246Z,23.50
2018-03-26T16:10:13.624Z,23.17
2018-03-26T16:12:41.891Z,23.17
2018-03-26T16:15:10.168Z,24.67
2018-03-26T16:17:38.440Z,24.30
2018-03-26T16:20:06.733Z,22.90
2018-03-26T16:22:35.076Z,24.20
2018-03-26T16:25:04.161Z,25.37
2018-03-26T16:27:32.507Z,23.98
2018-03-26T16:30:01.132Z,25.50
2018-03-26T16:32:29.641Z,23.70
2018-03-26T16:34:57.943Z,25.50
2018-03-26T16:37:26.210Z,23.67
2018-03-26T16:39:54.508Z,25.48
2018-03-26T16:42:26.222Z,25.92
2018-03-26T16:44:54.699Z,25.15
2018-03-26T16:47:23.093Z,25.62
2018-03-26T16:49:51.385Z,27.58
2018-03-26T16:52:19.678Z,24.55
2018-03-26T16:54:48.697Z,25.60
2018-03-26T16:57:17.086Z,26.30
2018-03-26T16:59:45.359Z,25.75
2018-03-26T17:02:13.644Z,24.65
2018-03-26T17:04:41.931Z,23.40
2018-03-26T17:07:11.012Z,24.10
2018-03-26T17:09:39.272Z,23.90
2018-03-26T17:12:07.815Z,23.85
2018-03-26T17:14:37.295Z,23.42
2018-03-26T17:17:05.630Z,25.00
2018-03-26T17:19:34.203Z,22.37
2018-03-26T17:22:02.624Z,25.25
2018-03-26T17:24:31.394Z,23.35
2018-03-26T17:26:59.909Z,24.77
2018-03-26T17:29:28.653Z,22.23
2018-03-26T17:31:57.252Z,24.27
2018-03-26T17:34:26.578Z,26.27
2018-03-26T17:36:55.099Z,23.02
2018-03-26T17:39:24.403Z,33.45
2018-03-26T17:41:53.660Z,35.38
2018-03-26T17:44:22.104Z,39.83
2018-03-26T17:46:50.965Z,41.80
2018-03-26T17:49:19.628Z,43.38
2018-03-26T17:51:48.428Z,40.85
2018-03-26T17:54:18.021Z,43.87
2018-03-26T17:56:47.360Z,41.37
2018-03-26T17:59:15.944Z,38.88
2018-03-26T18:01:44.556Z,33.70
2018-03-26T18:04:13.082Z,31.52
2018-03-26T18:06:41.994Z,29.98
2018-03-26T18:09:10.988Z,27.87
2018-03-26T18:11:39.587Z,28.15
2018-03-26T18:14:08.259Z,28.23
2018-03-26T18:16:37.126Z,27.08
2018-03-26T18:19:05.942Z,26.17
2018-03-26T18:21:34.835Z,26.33
2018-03-26T18:24:04.451Z,28.05
2018-03-26T18:26:33.014Z,29.85
2018-03-26T18:29:01.577Z,29.42
2018-03-26T18:31:29.948Z,28.98
2018-03-26T18:33:58.304Z,29.08
2018-03-26T18:36:27.722Z,28.75
2018-03-26T18:38:56.173Z,30.00
2018-03-26T18:41:26.262Z,30.67
2018-03-26T18:43:54.989Z,29.98
2018-03-26T18:46:24.322Z,29.83
2018-03-26T18:48:52.969Z,30.12
2018-03-26T18:51:22.368Z,30.08
2018-03-26T18:53:51.639Z,30.73
2018-03-26T18:56:20.221Z,32.58
2018-03-26T18:58:48.566Z,33.40
2018-03-26T19:01:17.530Z,35.63
2018-03-26T19:03:46.789Z,34.00
2018-03-26T19:06:15.477Z,38.47
2018-03-26T19:08:44.739Z,38.60
2018-03-26T19:11:13.910Z,34.50
2018-03-26T19:13:43.236Z,38.03
2018-03-26T19:16:12.356Z,38.60
2018-03-26T19:18:40.951Z,39.35
2018-03-26T19:21:09.527Z,37.58
2018-03-26T19:23:37.812Z,33.90
2018-03-26T19:26:06.902Z,37.78
2018-03-26T19:28:35.159Z,37.40
2018-03-26T19:31:03.478Z,34.30
2018-03-26T19:33:32.507Z,36.15
2018-03-26T19:36:00.819Z,37.08
2018-03-26T19:38:30.079Z,40.90
2018-03-26T19:40:58.381Z,39.15
2018-03-26T19:43:26.660Z,41.80
2018-03-26T19:45:55.031Z,42.58
2018-03-26T19:48:23.323Z,41.03
2018-03-26T19:50:51.622Z,41.55
2018-03-26T19:53:20.665Z,38.25
2018-03-26T19:55:49.025Z,40.95
2018-03-26T19:58:17.334Z,42.95
2018-03-26T20:00:45.754Z,42.45
2018-03-26T20:03:14.838Z,40.28
2018-03-26T20:05:43.935Z,38.92
2018-03-26T20:08:12.998Z,41.60
2018-03-26T20:10:41.338Z,42.25
2018-03-26T20:13:09.665Z,43.30
2018-03-26T20:15:37.952Z,42.42
2018-03-26T20:18:07.093Z,43.25
2018-03-26T20:20:35.404Z,41.65
2018-03-26T20:23:03.989Z,46.00
2018-03-26T20:25:32.222Z,48.65
2018-03-26T20:28:00.574Z,44.78
2018-03-26T20:30:33.215Z,45.95
2018-03-26T20:33:01.491Z,46.08
2018-03-26T20:35:30.011Z,43.22
2018-03-26T20:37:58.287Z,45.95
2018-03-26T20:40:26.686Z,41.22
2018-03-26T20:42:54.958Z,46.03
2018-03-26T20:45:23.275Z,44.42
2018-03-26T20:47:52.350Z,46.67
2018-03-26T20:50:20.713Z,42.80
2018-03-26T20:52:48.999Z,44.35
2018-03-26T20:55:17.301Z,47.08
2018-03-26T20:57:45.578Z,48.45
2018-03-26T21:00:13.881Z,47.00
2018-03-26T21:02:42.941Z,45.55
2018-03-26T21:05:11.315Z,47.50
2018-03-26T21:07:39.613Z,47.30
2018-03-26T21:10:08.701Z,48.03
2018-03-26T21:12:37.774Z,48.35
2018-03-26T21:15:06.077Z,47.33
2018-03-26T21:17:35.133Z,46.00
2018-03-26T21:20:03.505Z,45.08
2018-03-26T21:22:31.979Z,47.92
2018-03-26T21:25:00.237Z,47.75
2018-03-26T21:27:28.633Z,44.13
2018-03-26T21:29:56.921Z,45.22
2018-03-26T21:32:25.356Z,44.60
2018-03-26T21:34:54.528Z,46.50
2018-03-26T21:37:22.806Z,45.10
2018-03-26T21:39:52.933Z,46.10
2018-03-26T21:42:22.021Z,45.40
2018-03-26T21:44:51.139Z,44.88
2018-03-26T21:47:19.446Z,45.63
2018-03-26T21:49:47.889Z,49.42
2018-03-26T21:52:16.173Z,47.50
2018-03-26T21:54:44.455Z,47.05
2018-03-26T21:57:12.726Z,45.08
2018-03-26T21:59:41.029Z,44.20
2018-03-26T22:02:09.300Z,46.65
2018-03-26T22:04:37.583Z,44.70
2018-03-26T22:07:05.851Z,44.08
2018-03-26T22:09:34.143Z,45.05
2018-03-26T22:12:02.467Z,44.92
2018-03-26T22:14:30.928Z,46.25
2018-03-26T22:17:00.081Z,47.70
2018-03-26T22:19:28.462Z,44.25
2018-03-26T22:21:56.762Z,44.85
2018-03-26T22:24:25.085Z,45.05
2018-03-26T22:26:53.545Z,44.28
2018-03-26T22:29:21.941Z,41.37
2018-03-26T22:31:50.642Z,43.97
2018-03-26T22:34:19.031Z,44.42
2018-03-26T22:36:47.482Z,43.47
2018-03-26T22:39:15.786Z,43.58
2018-03-26T22:41:44.781Z,44.42
2018-03-26T22:44:13.042Z,47.25
2018-03-26T22:46:41.329Z,45.58
2018-03-26T22:49:09.614Z,43.00
2018-03-26T22:51:38.027Z,49.40
2018-03-26T22:54:07.058Z,45.50
2018-03-26T22:56:35.345Z,42.33
2018-03-26T22:59:04.590Z,45.80
2018-03-26T23:01:32.870Z,45.58
2018-03-26T23:04:01.171Z,45.20
2018-03-26T23:06:29.456Z,43.08
2018-03-26T23:08:57.850Z,44.97
2018-03-26T23:11:26.127Z,47.62
2018-03-26T23:13:54.422Z,44.22
2018-03-26T23:16:22.725Z,44.15
2018-03-26T23:18:51.878Z,42.88
2018-03-26T23:21:20.285Z,41.63
2018-03-26T23:23:48.595Z,44.25
2018-03-26T23:26:17.515Z,42.70
2018-03-26T23:28:46.191Z,41.40
2018-03-26T23:31:16.063Z,41.55
2018-03-26T23:33:45.265Z,41.70
2018-03-26T23:36:13.528Z,39.78
2018-03-26T23:38:43.320Z,43.55
2018-03-26T23:41:12.555Z,41.50
2018-03-26T23:43:41.399Z,45.47
2018-03-26T23:46:09.724Z,41.97
2018-03-26T23:48:38.087Z,39.45
2018-03-26T23:51:07.667Z,41.65
2018-03-26T23:53:36.188Z,44.63
2018-03-26T23:56:04.675Z,39.90
2018-03-26T23:58:32.987Z,39.92
